createdAt,value
2022-12-12T00:00:41.111Z,97664.16
2022-12-12T00:03:07.808Z,97671.56
2022-12-12T00:05:35.064Z,97666.88
2022-12-12T00:08:01.829Z,97664.63
2022-12-12T00:10:28.502Z,97674.25
2022-12-12T00:12:55.326Z,97668.44
2022-12-12T00:15:21.990Z,97675.22
2022-12-12T00:17:48.604Z,97669.69
2022-12-12T00:20:15.298Z,97667.47
2022-12-12T00:22:41.935Z,97674.28
2022-12-12T00:25:08.894Z,97670.03
2022-12-12T00:27:35.546Z,97669.69
2022-12-12T00:30:02.325Z,97668.91
2022-12-12T00:32:29.019Z,97667.50
2022-12-12T00:37:28.042Z,97670.31
2022-12-12T00:42:30.374Z,97674.09
2022-12-12T00:44:57.051Z,97675.06
2022-12-12T00:47:23.677Z,97673.81
2022-12-12T00:49:50.334Z,97671.28
2022-12-12T00:52:16.970Z,97674.59
2022-12-12T00:54:43.611Z,97676.81
2022-12-12T00:57:10.210Z,97672.53
2022-12-12T00:59:36.837Z,97671.59
2022-12-12T01:02:04.145Z,97673.16
2022-12-12T01:04:30.835Z,97675.06
2022-12-12T01:06:57.385Z,97678.69
2022-12-12T01:09:23.959Z,97663.38
2022-12-12T01:11:50.536Z,97675.06
2022-12-12T01:14:17.294Z,97680.44
2022-12-12T01:16:43.940Z,97670.34
2022-12-12T01:19:10.572Z,97673.31
2022-12-12T01:21:37.214Z,97675.53
2022-12-12T01:24:04.119Z,97673.34
2022-12-12T01:26:30.774Z,97674.75
2022-12-12T01:28:57.392Z,97676.97
2022-12-12T01:31:24.286Z,97673.50
2022-12-12T01:33:51.201Z,97671.25
2022-12-12T01:36:21.453Z,97666.38
2022-12-12T01:38:50.344Z,97672.72
2022-12-12T01:41:17.667Z,97677.44
2022-12-12T01:43:44.371Z,97683.75
2022-12-12T01:46:33.604Z,97683.13
2022-12-12T01:49:06.293Z,97688.63
2022-12-12T01:51:34.119Z,97684.69
2022-12-12T01:56:44.309Z,97686.13
2022-12-12T01:59:14.110Z,97692.44
2022-12-12T02:01:41.221Z,97693.41
2022-12-12T02:04:09.184Z,97689.59
2022-12-12T02:06:36.186Z,97690.34
2022-12-12T02:09:08.087Z,97683.06
2022-12-12T02:11:37.994Z,97687.94
2022-12-12T02:16:55.763Z,97685.81
2022-12-12T02:20:13.119Z,97673.31
2022-12-12T02:23:09.010Z,97685.03
2022-12-12T02:25:59.948Z,97685.81
2022-12-12T02:31:37.172Z,97686.28
2022-12-12T02:34:32.768Z,97688.00
2022-12-12T02:37:15.119Z,97686.28
2022-12-12T02:40:15.077Z,97691.94
2022-12-12T02:42:53.693Z,97693.34
2022-12-12T02:45:31.668Z,97695.84
2022-12-12T02:48:04.064Z,97697.09
2022-12-12T02:50:32.212Z,97703.47
2022-12-12T02:53:00.539Z,97698.56
2022-12-12T02:55:27.176Z,97707.44
2022-12-12T02:57:55.558Z,97701.94
2022-12-12T03:00:22.254Z,97708.56
2022-12-12T03:02:48.771Z,97698.19
2022-12-12T03:05:39.906Z,97705.13
2022-12-12T03:08:41.576Z,97707.91
2022-12-12T03:11:14.730Z,97699.66
2022-12-12T03:16:43.299Z,97702.75
2022-12-12T03:19:30.868Z,97702.84
2022-12-12T03:22:15.047Z,97701.47
2022-12-12T03:28:03.825Z,97699.09
2022-12-12T03:30:35.550Z,97700.88
2022-12-12T03:33:28.079Z,97704.59
2022-12-12T03:36:07.605Z,97699.31
2022-12-12T03:38:43.534Z,97705.78
2022-12-12T03:41:19.187Z,97705.50
2022-12-12T03:44:10.249Z,97696.13
2022-12-12T03:46:54.518Z,97695.97
2022-12-12T03:49:28.377Z,97705.94
2022-12-12T03:52:05.332Z,97701.47
2022-12-12T03:54:47.457Z,97712.34
2022-12-12T03:57:20.928Z,97713.31
2022-12-12T03:59:54.839Z,97710.47
2022-12-12T04:02:31.727Z,97714.25
2022-12-12T04:05:05.498Z,97717.97
2022-12-12T04:07:43.656Z,97717.06
2022-12-12T04:10:29.848Z,97706.34
2022-12-12T04:13:21.417Z,97712.97
2022-12-12T04:16:04.121Z,97711.06
2022-12-12T04:18:37.047Z,97721.81
2022-12-12T04:21:54.323Z,97715.72
2022-12-12T04:24:35.747Z,97725.19
2022-12-12T04:27:07.429Z,97717.91
2022-12-12T04:29:53.301Z,97722.16
2022-12-12T04:32:38.009Z,97725.91
2022-12-12T04:35:14.445Z,97730.19
2022-12-12T04:37:48.894Z,97727.75
2022-12-12T04:40:26.033Z,97734.16
2022-12-12T04:46:03.111Z,97739.38
2022-12-12T04:51:23.556Z,97735.53
2022-12-12T04:53:59.465Z,97737.38
2022-12-12T04:56:29.859Z,97732.31
2022-12-12T04:58:58.450Z,97742.28
2022-12-12T05:01:55.594Z,97742.81
2022-12-12T05:04:37.240Z,97752.19
2022-12-12T05:07:16.905Z,97746.78
2022-12-12T05:09:44.224Z,97747.88
2022-12-12T05:12:11.013Z,97752.94
2022-12-12T05:14:37.626Z,97753.66
2022-12-12T05:19:47.017Z,97754.81
2022-12-12T05:22:13.657Z,97752.59
2022-12-12T05:24:40.401Z,97766.13
2022-12-12T05:27:07.168Z,97761.53
2022-12-12T05:29:33.873Z,97754.56
2022-12-12T05:32:00.592Z,97762.63
2022-12-12T05:34:27.242Z,97755.25
2022-12-12T05:36:54.017Z,97761.22
2022-12-12T05:39:20.725Z,97765.81
2022-12-12T05:41:47.525Z,97757.56
2022-12-12T05:44:14.361Z,97764.91
2022-12-12T05:46:40.995Z,97757.03
2022-12-12T05:49:07.779Z,97759.72
2022-12-12T05:51:34.507Z,97768.91
2022-12-12T05:54:01.407Z,97770.44
2022-12-12T05:56:28.051Z,97773.97
2022-12-12T05:58:54.731Z,97779.50
2022-12-12T06:01:21.525Z,97777.56
2022-12-12T06:03:48.301Z,97783.31
2022-12-12T06:06:15.064Z,97780.91
2022-12-12T06:08:41.872Z,97778.88
2022-12-12T06:11:08.825Z,97773.50
2022-12-12T06:13:36.772Z,97775.53
2022-12-12T06:16:12.909Z,97770.81
2022-12-12T06:18:39.700Z,97777.22
2022-12-12T06:21:09.911Z,97778.06
2022-12-12T06:23:38.122Z,97783.56
2022-12-12T06:26:06.161Z,97788.56
2022-12-12T06:33:44.144Z,97782.06
2022-12-12T06:36:19.295Z,97796.06
2022-12-12T06:38:46.044Z,97791.84
2022-12-12T06:41:14.562Z,97796.50
2022-12-12T06:43:42.077Z,97798.25
2022-12-12T06:46:14.297Z,97797.50
2022-12-12T06:51:16.565Z,97798.56
2022-12-12T06:53:43.628Z,97793.97
2022-12-12T06:56:22.603Z,97795.22
2022-12-12T06:58:49.519Z,97800.88
2022-12-12T07:01:19.614Z,97804.09
2022-12-12T07:03:47.055Z,97807.41
2022-12-12T07:06:14.017Z,97800.53
2022-12-12T07:08:40.829Z,97812.44
2022-12-12T07:11:11.271Z,97809.66
2022-12-12T07:13:38.247Z,97816.41
2022-12-12T07:16:05.990Z,97811.53
2022-12-12T07:18:32.747Z,97814.03
2022-12-12T07:20:59.635Z,97814.34
2022-12-12T07:23:26.257Z,97814.81
2022-12-12T07:25:52.949Z,97819.75
2022-12-12T07:28:19.690Z,97825.34
2022-12-12T07:30:47.699Z,97831.78
2022-12-12T07:33:16.864Z,97821.75
2022-12-12T07:38:27.422Z,97827.38
2022-12-12T07:40:54.536Z,97833.06
2022-12-12T07:43:26.410Z,97840.53
2022-12-12T07:45:53.521Z,97839.91
2022-12-12T07:48:20.211Z,97835.84
2022-12-12T07:53:24.606Z,97834.88
2022-12-12T07:55:51.292Z,97841.38
2022-12-12T07:58:17.960Z,97843.16
2022-12-12T08:00:44.774Z,97844.31
2022-12-12T08:03:11.495Z,97851.63
2022-12-12T08:05:42.021Z,97845.66
2022-12-12T08:08:09.185Z,97851.16
2022-12-12T08:10:39.389Z,97847.84
2022-12-12T08:13:06.832Z,97843.34
2022-12-12T08:15:34.071Z,97850.59
2022-12-12T08:18:00.738Z,97853.56
2022-12-12T08:20:27.455Z,97863.63
2022-12-12T08:22:54.170Z,97863.06
2022-12-12T08:25:20.805Z,97858.09
2022-12-12T08:27:47.418Z,97865.09
2022-12-12T08:30:14.262Z,97866.28
2022-12-12T08:32:41.066Z,97865.41
2022-12-12T08:37:41.420Z,97878.81
2022-12-12T08:40:09.004Z,97877.56
2022-12-12T08:42:35.694Z,97883.22
2022-12-12T08:45:02.315Z,97886.06
2022-12-12T08:47:29.702Z,97889.78
2022-12-12T08:49:56.397Z,97883.31
2022-12-12T08:52:23.185Z,97884.59
2022-12-12T08:54:50.250Z,97898.56
2022-12-12T08:57:18.427Z,97899.41
2022-12-12T08:59:46.920Z,97884.06
2022-12-12T09:02:13.718Z,97895.38
2022-12-12T09:07:17.849Z,97886.44
2022-12-12T09:09:44.555Z,97882.94
2022-12-12T09:12:11.283Z,97895.81
2022-12-12T09:14:38.207Z,97894.94
2022-12-12T09:17:04.919Z,97890.69
2022-12-12T09:19:31.667Z,97896.59
2022-12-12T09:21:58.382Z,97903.38
2022-12-12T09:24:25.656Z,97896.03
2022-12-12T09:26:52.343Z,97899.16
2022-12-12T09:29:19.088Z,97900.22
2022-12-12T09:31:46.011Z,97907.94
2022-12-12T09:34:12.822Z,97913.75
2022-12-12T09:36:39.813Z,97925.75
2022-12-12T09:39:06.583Z,97928.59
2022-12-12T09:41:33.301Z,97917.44
2022-12-12T09:44:08.199Z,97915.25
2022-12-12T09:46:45.798Z,97916.34
2022-12-12T09:49:16.590Z,97915.06
2022-12-12T09:51:47.392Z,97914.03
2022-12-12T09:54:17.612Z,97903.16
2022-12-12T09:56:58.116Z,97914.28
2022-12-12T09:59:46.485Z,97906.03
2022-12-12T10:05:35.408Z,97898.59
2022-12-12T10:08:36.851Z,97895.25
2022-12-12T10:11:31.196Z,97894.50
2022-12-12T10:14:00.465Z,97890.41
2022-12-12T10:16:31.557Z,97890.75
2022-12-12T10:19:08.965Z,97890.19
2022-12-12T10:21:41.071Z,97891.25
2022-12-12T10:24:16.101Z,97886.28
2022-12-12T10:26:43.268Z,97887.53
2022-12-12T10:29:18.270Z,97888.44
2022-12-12T10:31:54.333Z,97882.66
2022-12-12T10:34:51.911Z,97878.38
2022-12-12T10:40:36.147Z,97884.50
2022-12-12T10:43:15.642Z,97882.03
2022-12-12T10:48:51.580Z,97877.72
2022-12-12T10:51:21.263Z,97878.81
2022-12-12T10:53:47.998Z,97878.75
2022-12-12T10:56:26.843Z,97887.97
2022-12-12T10:59:01.733Z,97875.91
2022-12-12T11:02:07.875Z,97875.88
2022-12-12T11:07:00.564Z,97871.72
2022-12-12T11:09:28.825Z,97873.00
2022-12-12T11:11:58.323Z,97878.34
2022-12-12T11:14:34.125Z,97877.56
2022-12-12T11:19:39.478Z,97880.91
2022-12-12T11:22:06.401Z,97883.47
2022-12-12T11:24:34.968Z,97868.00
2022-12-12T11:27:04.481Z,97876.25
2022-12-12T11:29:36.598Z,97863.75
2022-12-12T11:32:04.010Z,97864.03
2022-12-12T11:34:34.118Z,97858.84
2022-12-12T11:37:01.093Z,97858.97
2022-12-12T11:39:42.803Z,97863.25
2022-12-12T11:42:23.671Z,97857.25
2022-12-12T11:44:58.979Z,97860.41
2022-12-12T11:47:41.086Z,97862.25
2022-12-12T11:50:19.614Z,97867.69
2022-12-12T11:52:47.505Z,97861.19
2022-12-12T11:55:17.457Z,97856.03
2022-12-12T11:58:03.581Z,97863.59
2022-12-12T12:00:45.535Z,97860.13
2022-12-12T12:03:41.308Z,97848.59
2022-12-12T12:06:32.305Z,97841.19
2022-12-12T12:12:15.721Z,97844.97
2022-12-12T12:14:55.933Z,97842.25
2022-12-12T12:17:42.248Z,97845.44
2022-12-12T12:20:34.519Z,97840.41
2022-12-12T12:23:19.478Z,97836.44
2022-12-12T12:26:20.670Z,97842.91
2022-12-12T12:29:08.961Z,97828.25
2022-12-12T12:31:35.599Z,97834.09
2022-12-12T12:34:10.145Z,97833.59
2022-12-12T12:36:45.819Z,97829.66
2022-12-12T12:39:30.837Z,97830.94
2022-12-12T12:42:15.801Z,97831.84
2022-12-12T12:45:03.034Z,97833.31
2022-12-12T12:47:57.813Z,97827.75
2022-12-12T12:51:12.314Z,97828.06
2022-12-12T12:53:49.531Z,97826.19
2022-12-12T12:59:10.170Z,97832.81
2022-12-12T13:01:44.998Z,97822.22
2022-12-12T13:04:11.624Z,97816.69
2022-12-12T13:06:56.763Z,97825.72
2022-12-12T13:09:38.450Z,97819.22
2022-12-12T13:12:16.159Z,97821.28
2022-12-12T13:14:57.891Z,97819.84
2022-12-12T13:17:37.242Z,97819.84
2022-12-12T13:20:04.215Z,97824.94
2022-12-12T13:22:43.482Z,97818.13
2022-12-12T13:25:19.426Z,97814.47
2022-12-12T13:27:52.617Z,97814.81
2022-12-12T13:30:38.159Z,97808.78
2022-12-12T13:33:38.621Z,97810.81
2022-12-12T13:36:31.700Z,97813.03
2022-12-12T13:39:00.805Z,97806.88
2022-12-12T13:41:27.657Z,97801.03
2022-12-12T13:43:59.489Z,97802.75
2022-12-12T13:46:28.915Z,97800.06
2022-12-12T13:49:22.613Z,97805.75
2022-12-12T13:51:49.354Z,97808.75
2022-12-12T13:54:19.114Z,97803.69
2022-12-12T13:56:57.916Z,97805.28
2022-12-12T13:59:27.629Z,97808.47
2022-12-12T14:01:59.502Z,97811.91
2022-12-12T14:04:35.509Z,97808.28
2022-12-12T14:07:02.108Z,97798.78
2022-12-12T14:09:47.705Z,97804.19
2022-12-12T14:12:32.193Z,97804.66
2022-12-12T14:15:07.201Z,97803.72
2022-12-12T14:20:21.293Z,97807.19
2022-12-12T14:22:47.870Z,97808.75
2022-12-12T14:25:14.453Z,97804.47
2022-12-12T14:27:50.078Z,97814.28
2022-12-12T14:30:22.774Z,97820.59
2022-12-12T14:33:03.851Z,97816.19
2022-12-12T14:35:47.658Z,97813.66
2022-12-12T14:38:29.306Z,97809.56
2022-12-12T14:41:03.898Z,97817.63
2022-12-12T14:43:36.061Z,97807.34
2022-12-12T14:46:05.301Z,97805.13
2022-12-12T14:48:33.441Z,97815.75
2022-12-12T14:51:03.620Z,97808.63
2022-12-12T14:53:39.231Z,97814.28
2022-12-12T14:56:11.200Z,97814.94
2022-12-12T14:58:41.712Z,97803.72
2022-12-12T15:01:09.019Z,97805.75
2022-12-12T15:03:39.527Z,97797.69
2022-12-12T15:06:35.028Z,97790.44
2022-12-12T15:09:31.979Z,97792.72
2022-12-12T15:12:10.740Z,97787.59
2022-12-12T15:14:39.425Z,97784.41
2022-12-12T15:17:16.140Z,97791.22
2022-12-12T15:19:50.387Z,97787.91
2022-12-12T15:22:35.013Z,97787.59
2022-12-12T15:25:15.965Z,97792.66
2022-12-12T15:27:52.197Z,97789.50
2022-12-12T15:30:31.066Z,97794.72
2022-12-12T15:32:59.700Z,97795.47
2022-12-12T15:35:27.644Z,97791.69
2022-12-12T15:38:01.234Z,97799.59
2022-12-12T15:40:34.956Z,97795.34
2022-12-12T15:43:05.400Z,97806.25
2022-12-12T15:45:37.856Z,97810.69
2022-12-12T15:48:06.901Z,97806.25
2022-12-12T15:50:42.685Z,97804.81
2022-12-12T15:53:32.715Z,97813.69
2022-12-12T15:56:02.016Z,97810.66
2022-12-12T15:58:41.469Z,97806.75
2022-12-12T16:01:21.400Z,97804.34
2022-12-12T16:03:57.539Z,97804.66
2022-12-12T16:06:27.127Z,97805.41
2022-12-12T16:11:46.015Z,97798.78
2022-12-12T16:14:40.580Z,97797.84
2022-12-12T16:17:10.876Z,97795.94
2022-12-12T16:20:06.581Z,97791.22
2022-12-12T16:22:42.777Z,97796.28
2022-12-12T16:25:27.747Z,97801.97
2022-12-12T16:28:12.606Z,97802.38
2022-12-12T16:30:42.333Z,97811.56
2022-12-12T16:33:30.079Z,97812.00
2022-12-12T16:35:59.248Z,97816.75
2022-12-12T16:38:26.041Z,97810.63
2022-12-12T16:40:55.709Z,97821.19
2022-12-12T16:43:24.175Z,97820.06
2022-12-12T16:45:53.224Z,97825.63
2022-12-12T16:48:25.053Z,97835.03
2022-12-12T16:50:56.694Z,97836.81
2022-12-12T16:53:23.436Z,97834.47
2022-12-12T16:55:52.168Z,97833.69
2022-12-12T16:58:21.404Z,97843.91
2022-12-12T17:00:49.237Z,97846.16
2022-12-12T17:03:17.258Z,97838.41
2022-12-12T17:05:45.970Z,97842.81
2022-12-12T17:08:15.384Z,97847.22
2022-12-12T17:10:42.646Z,97853.09
2022-12-12T17:13:16.137Z,97859.69
2022-12-12T17:15:42.844Z,97848.84
2022-12-12T17:18:09.475Z,97853.03
2022-12-12T17:20:38.220Z,97854.56
2022-12-12T17:25:50.720Z,97851.00
2022-12-12T17:28:19.901Z,97847.00
2022-12-12T17:30:50.338Z,97841.50
2022-12-12T17:33:18.301Z,97836.34
2022-12-12T17:35:45.461Z,97838.72
2022-12-12T17:38:16.176Z,97833.16
2022-12-12T17:40:44.198Z,97829.59
2022-12-12T17:43:10.788Z,97831.53
2022-12-12T17:45:37.417Z,97820.91
2022-12-12T17:48:05.238Z,97826.28
2022-12-12T17:50:34.918Z,97824.84
2022-12-12T17:53:03.828Z,97828.06
2022-12-12T17:55:54.330Z,97831.19
2022-12-12T17:58:17.349Z,97829.78
2022-12-12T18:00:44.043Z,97835.66
2022-12-12T18:03:10.728Z,97823.88
2022-12-12T18:05:37.409Z,97820.84
2022-12-12T18:08:04.240Z,97822.22
2022-12-12T18:10:30.943Z,97829.06
2022-12-12T18:12:58.566Z,97831.00
2022-12-12T18:15:25.691Z,97840.66
2022-12-12T18:17:52.324Z,97834.25
2022-12-12T18:20:20.150Z,97833.69
2022-12-12T18:22:46.734Z,97839.31
2022-12-12T18:25:13.417Z,97827.00
2022-12-12T18:27:40.563Z,97840.53
2022-12-12T18:30:07.699Z,97838.50
2022-12-12T18:32:34.354Z,97835.50
2022-12-12T18:35:00.985Z,97830.41
2022-12-12T18:37:27.651Z,97831.16
2022-12-12T18:39:54.310Z,97835.84
2022-12-12T18:42:21.838Z,97836.75
2022-12-12T18:44:48.439Z,97837.00
2022-12-12T18:47:15.071Z,97831.41
2022-12-12T18:49:41.708Z,97835.94
2022-12-12T18:52:08.420Z,97826.16
2022-12-12T18:54:35.184Z,97835.50
2022-12-12T18:57:01.984Z,97824.56
2022-12-12T18:59:28.595Z,97835.59
2022-12-12T19:01:55.434Z,97836.16
2022-12-12T19:04:23.643Z,97842.53
2022-12-12T19:06:51.048Z,97844.56
2022-12-12T19:09:19.802Z,97841.38
2022-12-12T19:11:47.578Z,97847.25
2022-12-12T19:16:48.758Z,97837.38
2022-12-12T19:19:15.622Z,97830.72
2022-12-12T19:21:42.846Z,97839.88
2022-12-12T19:24:12.663Z,97832.53
2022-12-12T19:26:41.802Z,97832.34
2022-12-12T19:29:13.052Z,97831.50
2022-12-12T19:31:40.395Z,97829.22
2022-12-12T19:34:08.903Z,97830.50
2022-12-12T19:36:36.044Z,97831.41
2022-12-12T19:39:05.288Z,97822.25
2022-12-12T19:41:32.543Z,97822.13
2022-12-12T19:44:01.829Z,97825.84
2022-12-12T19:46:31.145Z,97829.84
2022-12-12T19:49:00.279Z,97825.16
2022-12-12T19:51:28.782Z,97820.91
2022-12-12T19:53:57.576Z,97820.06
2022-12-12T19:56:32.996Z,97824.56
2022-12-12T19:59:01.083Z,97825.28
2022-12-12T20:01:30.772Z,97826.25
2022-12-12T20:04:01.867Z,97830.22
2022-12-12T20:06:29.068Z,97818.56
2022-12-12T20:08:59.187Z,97825.53
2022-12-12T20:11:26.902Z,97827.38
2022-12-12T20:13:56.093Z,97823.56
2022-12-12T20:16:25.989Z,97818.78
2022-12-12T20:18:53.170Z,97820.00
2022-12-12T20:21:51.657Z,97822.56
2022-12-12T20:24:10.072Z,97822.88
2022-12-12T20:26:37.712Z,97824.28
2022-12-12T20:29:04.449Z,97820.72
2022-12-12T20:31:33.528Z,97823.22
2022-12-12T20:34:01.499Z,97819.84
2022-12-12T20:36:31.329Z,97825.22
2022-12-12T20:39:00.950Z,97820.44
2022-12-12T20:41:30.340Z,97825.97
2022-12-12T20:43:58.510Z,97818.63
2022-12-12T20:46:29.854Z,97826.28
2022-12-12T20:48:58.363Z,97822.53
2022-12-12T20:51:54.734Z,97821.44
2022-12-12T20:54:20.039Z,97819.63
2022-12-12T20:59:19.829Z,97817.63
2022-12-12T21:01:47.583Z,97818.31
2022-12-12T21:04:14.689Z,97818.25
2022-12-12T21:06:51.248Z,97820.44
2022-12-12T21:09:24.440Z,97827.19
2022-12-12T21:11:54.102Z,97830.06
2022-12-12T21:14:20.805Z,97828.88
2022-12-12T21:16:47.686Z,97822.81
2022-12-12T21:19:15.681Z,97823.34
2022-12-12T21:24:16.980Z,97817.38
2022-12-12T21:26:45.031Z,97818.28
2022-12-12T21:29:11.755Z,97821.34
2022-12-12T21:31:48.234Z,97807.16
2022-12-12T21:34:16.953Z,97794.28
2022-12-12T21:36:44.625Z,97807.66
2022-12-12T21:39:12.234Z,97809.47
2022-12-12T21:41:41.623Z,97808.78
2022-12-12T21:44:08.395Z,97799.63
2022-12-12T21:46:35.298Z,97803.41
2022-12-12T21:49:20.022Z,97801.91
2022-12-12T21:51:46.924Z,97798.84
2022-12-12T21:54:15.596Z,97796.09
2022-12-12T21:56:42.795Z,97785.06
2022-12-12T21:59:11.249Z,97792.81
2022-12-12T22:01:38.114Z,97791.22
2022-12-12T22:04:04.878Z,97782.78
2022-12-12T22:06:34.215Z,97790.75
2022-12-12T22:09:04.175Z,97789.72
2022-12-12T22:11:41.407Z,97782.09
2022-12-12T22:14:16.883Z,97790.16
2022-12-12T22:16:43.568Z,97796.47
2022-12-12T22:19:12.618Z,97793.59
2022-12-12T22:21:39.617Z,97797.47
2022-12-12T22:24:06.810Z,97802.50
2022-12-12T22:26:36.188Z,97806.56
2022-12-12T22:29:07.045Z,97805.88
2022-12-12T22:31:35.844Z,97798.44
2022-12-12T22:34:06.423Z,97797.84
2022-12-12T22:36:35.663Z,97794.88
2022-12-12T22:39:04.214Z,97794.75
2022-12-12T22:41:30.866Z,97791.78
2022-12-12T22:44:00.202Z,97792.31
2022-12-12T22:46:27.756Z,97780.75
2022-12-12T22:48:56.761Z,97789.13
2022-12-12T22:51:32.745Z,97781.91
2022-12-12T22:54:02.513Z,97783.59
2022-12-12T22:56:33.764Z,97781.22
2022-12-12T22:59:00.572Z,97773.50
2022-12-12T23:01:28.346Z,97779.94
2022-12-12T23:03:55.081Z,97780.00
2022-12-12T23:06:23.168Z,97774.00
2022-12-12T23:08:52.371Z,97769.78
2022-12-12T23:11:20.795Z,97768.88
2022-12-12T23:13:47.577Z,97762.75
2022-12-12T23:16:19.998Z,97765.72
2022-12-12T23:18:48.413Z,97768.66
2022-12-12T23:21:17.749Z,97763.44
2022-12-12T23:23:45.473Z,97756.38
2022-12-12T23:26:21.622Z,97753.03
2022-12-12T23:28:49.180Z,97754.16
2022-12-12T23:33:57.283Z,97751.84
2022-12-12T23:36:24.873Z,97748.03
2022-12-12T23:38:56.295Z,97746.03
2022-12-12T23:41:23.035Z,97740.84
2022-12-12T23:43:50.640Z,97744.00
2022-12-12T23:46:31.217Z,97740.31
2022-12-12T23:49:12.727Z,97735.09
2022-12-12T23:51:45.291Z,97734.31
2022-12-12T23:54:14.516Z,97746.97
2022-12-12T23:56:41.894Z,97733.34
2022-12-12T23:59:10.678Z,97738.38
